BEARDSLEY LAKE (BRD)

Elevation: 3398' · STANISLAUS R basin · Operator: Oakdale South San Joaquin Irrigation District

Provisional data, subject to change.
Query executed Sunday at 22:20:14   clock

Select a sensor type for a plot of data.
Note: Reservoir Flows are daily averages.

Earlier

Date STORAGE    RES CHG    OUTFLOW    PPT INC   
 AF   AF   CFS   INCHES  
08/26/2016 81562 -892 598 0.00
08/27/2016 80655 -907 599 0.00
08/28/2016 79752 -903 599 0.00
08/29/2016 78878 -874 597 0.00
08/30/2016 78009 -869 598 0.00
08/31/2016 77175 -834 -- --
09/01/2016 76347 -828 599 0.00
09/02/2016 75495 -852 599 0.00
09/03/2016 74595 -900 597 0.00
09/04/2016 73693 -902 597 0.00
09/05/2016 72809 -884 598 0.00
09/06/2016 71979 -830 600 0.00
09/07/2016 71140 -839 599 0.00
09/08/2016 70267 -873 595 0.00
09/09/2016 69429 -838 599 0.00
09/10/2016 68557 -872 599 0.00
09/11/2016 67678 -879 599 0.00
09/12/2016 66778 -900 599 0.00
09/13/2016 65876 -902 600 0.00
09/14/2016 65224 -652 466 0.00
09/15/2016 64690 -534 402 0.00
09/16/2016 64250 -440 401 0.00
09/17/2016 63738 -512 401 0.00
09/18/2016 63232 -506 402 0.00
09/19/2016 62941 -- 402 0.00
09/20/2016 62481 -460 399 0.00
09/21/2016 62053 -428 400 0.00
09/22/2016 61547 -506 402 0.00
09/23/2016 61073 -474 401 0.00
09/24/2016 60630 -443 395 0.00
09/25/2016 -- -- -- --

Later | Latest

Warning! This data is preliminary and subject to revision.

Show BRD Map | Plot BRD Data | 1 Month BRD Data | Real-Time BRD Data | BRD Info